Time;durP1;ratioP1;P1;durP2;ratioP2;P2;SDS_P1;SDS_P2;PMS_P1;PMS_P2;Temp;Humidity;BMP_temperature;BMP_pressure;BME280_temperature;BME280_humidity;BME280_pressure;Samples;Min_cycle;Max_cycle;Signal;HPM_P1;HPM_P2
2024/01/05 00:00:57;;;;;;;4.72;3.50;;;;;;;1.77;86.64;94414.94;5091393;28;20032;-67
2024/01/05 00:03:22;;;;;;;5.25;3.13;;;;;;;1.84;86.67;94417.16;5085727;28;20024;-67
2024/01/05 00:05:48;;;;;;;3.45;2.88;;;;;;;1.87;87.20;94425.53;5059519;28;20033;-67
2024/01/05 00:08:13;;;;;;;5.25;3.50;;;;;;;1.87;86.60;94422.97;5070124;28;20024;-67
2024/01/05 00:10:38;;;;;;;5.00;3.40;;;;;;;1.69;87.43;94429.06;5090762;28;20027;-67
2024/01/05 00:13:05;;;;;;;3.38;2.38;;;;;;;1.85;88.18;94418.81;5088782;28;20036;-67
2024/01/05 00:15:30;;;;;;;5.05;3.00;;;;;;;1.65;88.86;94422.47;5090284;28;20407;-66
2024/01/05 00:17:56;;;;;;;5.55;3.50;;;;;;;1.73;88.50;94433.13;5073145;28;20036;-67
2024/01/05 00:20:21;;;;;;;3.95;3.05;;;;;;;1.74;88.74;94432.22;5077488;28;20025;-67
2024/01/05 00:22:47;;;;;;;3.92;2.90;;;;;;;1.83;87.35;94446.25;5088850;28;20051;-66
2024/01/05 00:25:12;;;;;;;6.82;3.75;;;;;;;1.95;85.73;94438.72;5090544;28;20039;-66
2024/01/05 00:27:37;;;;;;;9.57;6.50;;;;;;;1.62;87.25;94450.81;5083172;28;20024;-66
2024/01/05 00:30:04;;;;;;;7.15;4.63;;;;;;;1.83;84.48;94446.25;5085786;28;20433;-66
2024/01/05 00:32:30;;;;;;;6.78;4.15;;;;;;;1.70;86.52;94423.03;5090680;28;20032;-67
2024/01/05 00:34:55;;;;;;;5.40;3.75;;;;;;;1.65;88.35;94446.34;5088938;28;20040;-66
2024/01/05 00:37:20;;;;;;;6.32;4.40;;;;;;;1.70;88.48;94459.72;5083841;28;20016;-67
2024/01/05 00:39:46;;;;;;;8.07;4.40;;;;;;;1.79;87.65;94448.16;5081835;28;20526;-67
2024/01/05 00:42:11;;;;;;;6.13;3.40;;;;;;;1.69;89.03;94455.50;5052932;28;20036;-67
2024/01/05 00:44:37;;;;;;;4.47;3.67;;;;;;;1.70;88.67;94457.16;5070674;28;20032;-66
2024/01/05 00:47:02;;;;;;;5.00;3.95;;;;;;;1.63;89.48;94452.47;5080891;28;20442;-66
2024/01/05 00:49:28;;;;;;;4.55;3.53;;;;;;;1.68;89.97;94458.97;5070718;28;20429;-67
2024/01/05 00:51:53;;;;;;;6.95;4.80;;;;;;;1.60;89.35;94453.44;5082427;28;20501;-67
2024/01/05 00:54:18;;;;;;;6.53;4.75;;;;;;;1.72;87.71;94431.47;5073936;28;20019;-67
2024/01/05 00:56:44;;;;;;;5.78;4.82;;;;;;;1.74;86.42;94452.69;5085480;28;20310;-67
2024/01/05 00:59:11;;;;;;;6.40;4.38;;;;;;;1.49;87.53;94460.88;5090807;28;20405;-66
2024/01/05 01:01:36;;;;;;;5.80;4.68;;;;;;;1.63;87.92;94460.97;5065047;28;20478;-66
2024/01/05 01:04:02;;;;;;;5.22;4.43;;;;;;;1.68;87.55;94468.41;5060604;28;20036;-67
2024/01/05 01:06:27;;;;;;;4.68;3.00;;;;;;;1.63;87.98;94455.84;5074476;28;20074;-66
2024/01/05 01:08:53;;;;;;;4.95;2.97;;;;;;;1.68;89.52;94460.72;5087336;28;20032;-67
2024/01/05 01:11:18;;;;;;;6.68;3.08;;;;;;;1.71;89.95;94446.00;5085614;28;20489;-66
2024/01/05 01:13:44;;;;;;;4.63;2.95;;;;;;;1.97;87.69;94452.25;5073723;28;20025;-66
2024/01/05 01:16:10;;;;;;;3.92;2.78;;;;;;;1.79;85.49;94459.22;5077505;28;20042;-66
2024/01/05 01:18:36;;;;;;;4.35;3.10;;;;;;;1.58;87.00;94465.50;5074010;28;20039;-67
2024/01/05 01:21:01;;;;;;;4.47;2.80;;;;;;;1.69;87.27;94463.19;5080445;28;20028;-67
2024/01/05 01:23:26;;;;;;;4.82;2.85;;;;;;;1.83;86.07;94470.13;5080761;28;20032;-67
2024/01/05 01:25:52;;;;;;;5.32;2.50;;;;;;;1.87;85.85;94455.44;5085715;28;20160;-67
2024/01/05 01:28:17;;;;;;;7.95;2.50;;;;;;;1.94;85.45;94467.00;5089062;28;20058;-66
2024/01/05 01:30:43;;;;;;;3.22;2.25;;;;;;;1.84;85.00;94465.81;5086926;28;20032;-66
2024/01/05 01:33:08;;;;;;;3.13;2.40;;;;;;;1.79;85.55;94469.47;5070375;28;20047;-67
2024/01/05 01:35:33;;;;;;;4.93;3.15;;;;;;;1.93;82.75;94473.03;5077313;28;20089;-66
2024/01/05 01:37:59;;;;;;;6.70;2.53;;;;;;;1.69;83.42;94462.38;5082240;28;20029;-67
2024/01/05 01:40:25;;;;;;;5.72;3.13;;;;;;;1.64;84.15;94472.03;5075441;28;20037;-66
2024/01/05 01:42:51;;;;;;;4.03;2.75;;;;;;;1.68;84.51;94476.91;5068941;28;20494;-67
2024/01/05 01:45:16;;;;;;;5.07;2.80;;;;;;;1.55;84.10;94478.47;5080926;28;20039;-66
2024/01/05 01:47:41;;;;;;;4.43;2.95;;;;;;;1.66;83.36;94468.47;5078091;28;20039;-67
2024/01/05 01:50:07;;;;;;;5.70;3.03;;;;;;;1.53;83.39;94452.09;5071649;28;20032;-67
2024/01/05 01:52:34;;;;;;;4.88;3.05;;;;;;;1.55;83.44;94481.03;5072403;28;20107;-66
2024/01/05 01:54:59;;;;;;;4.90;3.10;;;;;;;1.21;84.05;94453.81;5058045;28;20094;-67
2024/01/05 01:57:24;;;;;;;4.70;3.25;;;;;;;1.25;84.54;94478.31;5070223;28;20036;-66
2024/01/05 01:59:50;;;;;;;4.50;3.22;;;;;;;1.30;84.89;94484.03;5078371;28;20032;-67
2024/01/05 02:02:15;;;;;;;5.53;3.03;;;;;;;1.18;85.73;94494.91;5089453;28;20039;-66
2024/01/05 02:04:41;;;;;;;3.78;2.72;;;;;;;1.32;85.65;94502.72;5092737;28;20040;-66
2024/01/05 02:07:06;;;;;;;5.40;3.00;;;;;;;1.28;85.69;94488.41;5091143;28;20463;-67
2024/01/05 02:09:32;;;;;;;5.45;3.38;;;;;;;0.98;85.41;94501.06;5068388;28;20029;-66
2024/01/05 02:11:57;;;;;;;7.47;3.50;;;;;;;1.07;85.23;94498.84;5055701;28;20036;-66
2024/01/05 02:14:22;;;;;;;5.90;3.80;;;;;;;1.00;85.80;94500.03;5082219;28;20459;-67
2024/01/05 02:16:48;;;;;;;8.02;5.22;;;;;;;1.13;86.10;94510.50;5075139;28;20082;-66
2024/01/05 02:19:13;;;;;;;8.80;5.32;;;;;;;1.29;84.92;94520.78;5091620;28;20031;-66
2024/01/05 02:21:40;;;;;;;7.13;5.28;;;;;;;0.99;85.72;94498.41;5079871;28;20038;-66
2024/01/05 02:24:05;;;;;;;9.43;5.10;;;;;;;1.16;86.02;94517.19;5072066;28;20417;-66
2024/01/05 02:26:31;;;;;;;8.00;5.22;;;;;;;1.18;86.30;94505.16;5078999;28;20032;-67
2024/01/05 02:28:56;;;;;;;5.63;4.53;;;;;;;1.17;87.42;94499.22;5088312;28;20031;-67
2024/01/05 02:31:21;;;;;;;6.93;4.25;;;;;;;1.26;89.26;94493.63;5082331;28;20488;-67
2024/01/05 02:33:47;;;;;;;5.50;4.28;;;;;;;1.32;89.73;94495.84;5091166;28;20035;-67
2024/01/05 02:36:12;;;;;;;6.15;4.25;;;;;;;1.31;90.56;94496.78;5076163;28;20037;-67
2024/01/05 02:38:37;;;;;;;5.75;4.38;;;;;;;1.25;90.29;94488.56;5079807;28;20505;-67
2024/01/05 02:41:05;;;;;;;5.68;4.30;;;;;;;1.28;89.99;94485.84;5090389;28;20118;-67
2024/01/05 02:43:30;;;;;;;5.90;4.05;;;;;;;1.62;90.80;94497.72;5078931;28;20123;-66
2024/01/05 02:45:56;;;;;;;7.88;3.95;;;;;;;1.53;89.77;94503.31;5081677;28;20047;-66
2024/01/05 02:48:21;;;;;;;5.53;3.50;;;;;;;1.45;87.95;94503.72;5083713;28;20027;-66
2024/01/05 02:50:47;;;;;;;4.55;3.38;;;;;;;1.23;88.25;94501.44;5084197;28;20048;-66
2024/01/05 02:53:12;;;;;;;5.40;3.45;;;;;;;1.09;88.20;94504.72;5080068;28;20099;-66
2024/01/05 02:55:37;;;;;;;5.25;3.50;;;;;;;1.12;88.69;94513.97;5082749;28;20060;-66
2024/01/05 02:58:03;;;;;;;5.80;3.25;;;;;;;1.23;87.05;94521.94;5082158;28;20027;-67
2024/01/05 03:00:28;;;;;;;7.15;4.38;;;;;;;1.19;86.88;94524.72;5059678;28;20572;-66
2024/01/05 03:02:54;;;;;;;7.20;4.88;;;;;;;1.00;87.71;94530.75;5084983;28;20044;-66
2024/01/05 03:05:20;;;;;;;4.90;2.92;;;;;;;1.27;87.45;94525.97;5069486;28;20041;-66
2024/01/05 03:07:45;;;;;;;5.00;3.70;;;;;;;0.92;87.75;94532.03;5078403;28;20529;-66
2024/01/05 03:10:11;;;;;;;5.28;2.92;;;;;;;1.06;87.37;94533.03;5083396;28;20036;-67
2024/01/05 03:12:36;;;;;;;4.18;2.58;;;;;;;1.07;87.19;94537.22;5069732;28;20055;-66
2024/01/05 03:15:02;;;;;;;4.28;2.42;;;;;;;1.06;87.50;94539.88;5083671;28;20036;-66
2024/01/05 03:17:28;;;;;;;4.30;2.58;;;;;;;0.97;86.43;94530.06;5081412;28;20444;-67
2024/01/05 03:19:53;;;;;;;3.55;2.13;;;;;;;1.01;86.59;94541.81;5083025;28;20024;-67
2024/01/05 03:22:19;;;;;;;4.25;2.35;;;;;;;0.88;86.40;94546.72;5068956;28;20032;-66
2024/01/05 03:24:44;;;;;;;4.95;3.20;;;;;;;0.79;85.93;94555.66;5069881;28;20058;-67
2024/01/05 03:27:13;;;;;;;5.22;2.80;;;;;;;0.84;86.23;94542.66;5085666;28;20040;-66
2024/01/05 03:29:39;;;;;;;4.45;2.38;;;;;;;0.74;87.04;94559.34;5085801;28;20051;-67
2024/01/05 03:32:04;;;;;;;3.83;2.60;;;;;;;0.91;87.55;94563.63;5069417;28;20070;-67
2024/01/05 03:34:30;;;;;;;6.28;2.67;;;;;;;0.68;87.59;94564.75;5070446;28;20067;-66
2024/01/05 03:36:56;;;;;;;3.33;2.25;;;;;;;0.76;87.51;94571.16;5085370;28;20027;-68
2024/01/05 03:39:21;;;;;;;4.10;2.30;;;;;;;0.89;89.20;94579.91;5084605;28;20070;-66
2024/01/05 03:41:47;;;;;;;4.93;2.40;;;;;;;0.94;88.56;94571.16;5085522;28;20032;-67
2024/01/05 03:44:20;;;;;;;6.45;2.90;;;;;;;0.80;89.32;94575.22;5084968;28;20030;-66
2024/01/05 03:46:46;;;;;;;3.95;2.42;;;;;;;0.76;89.69;94581.38;5065443;28;20413;-66
2024/01/05 03:49:11;;;;;;;3.10;1.92;;;;;;;0.88;88.89;94575.66;5086451;28;20032;-66
2024/01/05 03:51:37;;;;;;;5.47;3.63;;;;;;;0.68;89.58;94570.69;5086282;28;20055;-67
2024/01/05 03:54:02;;;;;;;8.25;3.90;;;;;;;0.79;87.25;94583.78;5082586;28;20457;-67
2024/01/05 03:56:27;;;;;;;7.32;4.63;;;;;;;0.71;88.10;94573.09;5084329;28;20056;-66
2024/01/05 03:58:53;;;;;;;11.07;5.45;;;;;;;0.88;86.69;94577.41;5086540;28;20086;-66
2024/01/05 04:01:18;;;;;;;8.50;4.95;;;;;;;0.72;87.81;94579.03;5087292;28;20028;-66
2024/01/05 04:03:43;;;;;;;8.50;5.47;;;;;;;0.77;87.26;94589.88;5086602;28;20032;-66
2024/01/05 04:06:18;;;;;;;5.72;3.50;;;;;;;0.82;87.48;94588.75;5088573;28;20500;-67
2024/01/05 04:08:43;;;;;;;8.15;3.38;;;;;;;0.80;87.81;94580.31;5082992;28;20016;-68
2024/01/05 04:11:09;;;;;;;6.57;2.90;;;;;;;0.72;88.48;94572.19;5079396;28;20500;-68
2024/01/05 04:13:34;;;;;;;5.18;3.10;;;;;;;0.67;89.58;94599.72;5066762;28;20032;-68
2024/01/05 04:16:00;;;;;;;14.15;9.00;;;;;;;0.85;88.78;94596.28;5083076;28;20554;-68
2024/01/05 04:18:25;;;;;;;14.20;10.57;;;;;;;0.62;88.25;94604.22;5086360;28;20473;-69
2024/01/05 04:20:50;;;;;;;17.95;10.50;;;;;;;0.71;88.46;94608.91;5080224;28;20421;-68
2024/01/05 04:23:16;;;;;;;19.05;11.88;;;;;;;0.47;88.61;94613.44;5085785;28;20073;-68
2024/01/05 04:25:41;;;;;;;14.95;9.23;;;;;;;0.60;88.39;94604.28;5085515;28;20071;-68
2024/01/05 04:28:07;;;;;;;17.00;12.23;;;;;;;0.39;88.60;94600.19;5084432;28;20098;-68
2024/01/05 04:30:32;;;;;;;16.17;9.93;;;;;;;0.55;87.87;94607.97;5075914;28;20062;-68
2024/01/05 04:32:57;;;;;;;13.00;9.13;;;;;;;0.60;87.73;94609.41;5083251;28;20039;-68
2024/01/05 04:35:23;;;;;;;19.20;13.15;;;;;;;0.35;87.63;94612.28;5048388;28;20082;-69
2024/01/05 04:37:48;;;;;;;16.45;11.57;;;;;;;0.56;87.92;94617.31;5086557;28;20063;-69
2024/01/05 04:40:14;;;;;;;17.33;12.45;;;;;;;0.55;87.99;94621.56;5077148;28;20554;-68
2024/01/05 04:42:39;;;;;;;11.15;8.02;;;;;;;0.67;86.57;94635.53;5081628;28;20032;-70
2024/01/05 04:45:05;;;;;;;10.93;7.97;;;;;;;0.61;86.75;94631.53;5078536;28;20112;-67
2024/01/05 04:47:31;;;;;;;10.00;7.68;;;;;;;0.56;86.62;94605.34;5080999;28;20213;-69
2024/01/05 04:49:57;;;;;;;11.05;6.38;;;;;;;0.77;85.11;94608.59;5062338;28;20108;-68
2024/01/05 04:52:22;;;;;;;13.23;6.40;;;;;;;0.66;85.47;94623.63;5077634;28;20028;-68
2024/01/05 04:54:47;;;;;;;8.25;5.40;;;;;;;0.60;86.30;94621.38;5083368;28;20391;-68
2024/01/05 04:57:13;;;;;;;11.80;6.45;;;;;;;0.75;86.10;94635.97;5079317;28;20048;-68
2024/01/05 04:59:38;;;;;;;10.77;7.10;;;;;;;0.70;86.11;94630.28;5083156;28;20040;-68
2024/01/05 05:02:04;;;;;;;8.45;5.13;;;;;;;0.93;86.21;94646.25;5066410;28;20025;-68
2024/01/05 05:04:29;;;;;;;5.68;3.25;;;;;;;0.84;85.45;94644.97;5082849;28;20035;-68
2024/01/05 05:06:55;;;;;;;6.78;3.40;;;;;;;0.64;86.08;94644.16;5082508;28;20039;-68
2024/01/05 05:09:20;;;;;;;6.53;4.10;;;;;;;0.71;86.80;94661.78;5063833;28;20023;-69
2024/01/05 05:11:46;;;;;;;9.85;3.30;;;;;;;0.66;86.77;94654.31;5080524;28;20967;-69
2024/01/05 05:14:11;;;;;;;4.32;2.92;;;;;;;0.75;86.51;94658.97;5066291;28;20048;-69
2024/01/05 05:16:37;;;;;;;6.88;3.30;;;;;;;0.73;86.56;94671.03;5080156;28;20039;-69
2024/01/05 05:19:02;;;;;;;7.03;4.95;;;;;;;0.64;87.01;94676.56;5066459;28;20031;-68
2024/01/05 05:21:28;;;;;;;6.78;4.72;;;;;;;0.34;87.51;94633.63;5078629;28;20032;-68
2024/01/05 05:23:53;;;;;;;15.80;6.75;;;;;;;0.52;88.12;94664.34;5080661;28;20516;-68
2024/01/05 05:26:19;;;;;;;18.38;8.38;;;;;;;0.50;89.03;94674.63;5061207;28;20032;-69
2024/01/05 05:28:44;;;;;;;15.35;7.68;;;;;;;0.63;88.96;94662.13;5079221;28;20024;-69
2024/01/05 05:31:09;;;;;;;17.95;8.23;;;;;;;0.62;89.18;94663.03;5080995;28;20466;-69
2024/01/05 05:33:35;;;;;;;14.93;7.28;;;;;;;0.62;90.66;94675.81;5073056;28;20039;-69
2024/01/05 05:36:00;;;;;;;18.80;9.60;;;;;;;0.65;91.18;94680.78;5084959;28;20043;-69
2024/01/05 05:38:26;;;;;;;13.45;7.72;;;;;;;0.41;91.10;94641.84;5090622;28;20024;-69
2024/01/05 05:40:51;;;;;;;12.23;5.70;;;;;;;0.81;90.72;94673.25;5086033;28;20032;-69
2024/01/05 05:43:16;;;;;;;5.10;3.45;;;;;;;0.79;91.96;94685.25;5057693;28;20079;-68
2024/01/05 05:45:42;;;;;;;9.93;4.38;;;;;;;0.90;93.38;94685.59;5089261;28;20089;-68
2024/01/05 05:48:07;;;;;;;10.18;4.32;;;;;;;0.98;94.04;94690.34;5089424;28;20507;-69
2024/01/05 05:50:33;;;;;;;6.43;3.30;;;;;;;1.12;93.91;94687.97;5085365;28;20044;-69
2024/01/05 05:52:58;;;;;;;8.70;3.80;;;;;;;1.07;94.36;94684.78;5066862;28;20028;-68
2024/01/05 05:55:23;;;;;;;11.07;5.60;;;;;;;1.08;93.97;94682.13;5087991;28;20048;-68
2024/01/05 05:57:49;;;;;;;10.15;4.90;;;;;;;1.15;93.80;94690.38;5069641;28;20425;-68
2024/01/05 06:00:14;;;;;;;9.48;4.18;;;;;;;1.06;93.65;94683.16;5085189;28;20028;-68
2024/01/05 06:02:40;;;;;;;17.25;7.53;;;;;;;1.10;93.37;94677.78;5082292;28;20044;-68
2024/01/05 06:05:06;;;;;;;10.00;5.60;;;;;;;1.23;92.88;94695.94;5087057;28;20043;-67
2024/01/05 06:07:31;;;;;;;10.20;4.68;;;;;;;1.26;92.65;94690.69;5086584;28;20047;-69
2024/01/05 06:09:57;;;;;;;10.55;4.68;;;;;;;1.53;93.00;94700.47;5084317;28;20668;-69
2024/01/05 06:12:23;;;;;;;11.90;5.97;;;;;;;1.39;92.32;94690.91;5086086;28;20433;-69
2024/01/05 06:14:48;;;;;;;11.70;5.85;;;;;;;1.55;91.80;94696.91;5087309;28;20032;-69
2024/01/05 06:17:13;;;;;;;13.70;6.65;;;;;;;1.48;91.80;94694.75;5087382;28;20118;-70
2024/01/05 06:19:39;;;;;;;10.75;5.28;;;;;;;1.40;91.58;94684.88;5085019;28;20469;-69
2024/01/05 06:22:04;;;;;;;10.95;3.92;;;;;;;1.48;91.21;94699.88;5070261;28;20485;-70
2024/01/05 06:24:30;;;;;;;9.57;5.70;;;;;;;1.47;91.84;94701.59;5088211;28;20521;-67
2024/01/05 06:26:55;;;;;;;20.63;9.65;;;;;;;1.52;91.74;94691.13;5065172;28;20498;-69
2024/01/05 06:29:20;;;;;;;24.67;10.63;;;;;;;1.49;91.43;94704.91;5087749;28;20104;-68
2024/01/05 06:31:46;;;;;;;21.20;10.00;;;;;;;1.62;89.99;94715.38;5085355;28;20028;-67
2024/01/05 06:34:11;;;;;;;12.77;5.75;;;;;;;1.73;88.90;94708.00;5089864;28;20031;-69
2024/01/05 06:36:37;;;;;;;15.25;7.03;;;;;;;1.74;88.67;94709.66;5089356;28;20056;-69
2024/01/05 06:39:02;;;;;;;14.90;8.00;;;;;;;1.81;88.89;94722.16;5087848;28;20036;-69
2024/01/05 06:41:28;;;;;;;14.55;6.13;;;;;;;1.85;87.20;94703.16;5084471;28;20024;-69
2024/01/05 06:43:53;;;;;;;24.00;13.85;;;;;;;1.73;86.49;94719.97;5052819;28;20506;-69
2024/01/05 06:46:19;;;;;;;23.15;13.27;;;;;;;1.91;85.87;94720.78;5082803;28;20036;-69
2024/01/05 06:48:44;;;;;;;13.82;8.20;;;;;;;1.90;86.01;94721.69;5086288;28;20298;-67
2024/01/05 06:51:10;;;;;;;7.10;3.90;;;;;;;1.47;86.71;94682.84;5085820;28;20040;-67
2024/01/05 06:53:35;;;;;;;5.20;3.17;;;;;;;1.77;88.57;94711.22;5089115;28;20024;-67
2024/01/05 06:56:00;;;;;;;7.43;3.25;;;;;;;1.76;88.57;94715.53;5085256;28;20422;-67
2024/01/05 06:58:27;;;;;;;4.20;2.65;;;;;;;1.66;89.69;94708.38;5089585;28;20020;-67
2024/01/05 07:00:53;;;;;;;5.03;2.63;;;;;;;1.69;89.62;94710.78;5086942;28;20032;-67
2024/01/05 07:03:18;;;;;;;3.80;2.15;;;;;;;1.67;89.86;94713.44;5087361;28;20027;-67
2024/01/05 07:05:43;;;;;;;4.55;2.58;;;;;;;1.70;90.29;94713.28;5088586;28;20028;-67
2024/01/05 07:08:09;;;;;;;10.13;4.70;;;;;;;1.94;89.92;94705.25;5088043;28;20440;-67
2024/01/05 07:10:35;;;;;;;7.00;2.92;;;;;;;1.86;89.27;94707.38;5078745;28;20024;-67
2024/01/05 07:13:00;;;;;;;3.97;2.10;;;;;;;1.88;89.79;94697.88;5067656;28;20036;-67
2024/01/05 07:15:25;;;;;;;4.88;2.80;;;;;;;1.88;90.97;94708.13;5090918;28;20036;-67
2024/01/05 07:17:51;;;;;;;6.75;2.75;;;;;;;2.05;90.49;94705.53;5089766;28;20031;-67
2024/01/05 07:20:16;;;;;;;5.70;2.33;;;;;;;2.01;89.75;94698.94;5084148;28;20025;-67
2024/01/05 07:22:42;;;;;;;5.57;2.25;;;;;;;2.06;89.66;94696.09;5069013;28;20478;-67
2024/01/05 07:25:10;;;;;;;5.13;2.40;;;;;;;1.97;90.72;94703.34;5065659;28;20032;-67
2024/01/05 07:27:36;;;;;;;4.75;2.20;;;;;;;2.05;91.14;94708.09;5052317;28;20112;-67
2024/01/05 07:30:03;;;;;;;34.45;9.27;;;;;;;2.18;89.39;94686.06;5055868;28;20035;-67
2024/01/05 07:32:29;;;;;;;4.32;2.05;;;;;;;2.27;89.56;94704.44;5089457;28;20136;-67
2024/01/05 07:34:54;;;;;;;6.60;3.05;;;;;;;2.31;88.58;94709.31;5073151;28;20089;-67
2024/01/05 07:37:21;;;;;;;12.80;5.78;;;;;;;2.28;88.37;94699.22;5091964;28;20034;-67
2024/01/05 07:39:47;;;;;;;6.13;3.22;;;;;;;2.39;88.70;94703.78;5091968;28;20032;-66
2024/01/05 07:42:12;;;;;;;3.65;2.30;;;;;;;2.42;88.17;94711.31;5089124;28;20035;-67
2024/01/05 07:44:40;;;;;;;8.75;4.78;;;;;;;2.49;88.59;94715.22;5089969;28;20089;-67
2024/01/05 07:47:06;;;;;;;23.13;11.48;;;;;;;2.54;88.24;94710.69;5088261;28;20106;-67
2024/01/05 07:49:31;;;;;;;13.13;6.47;;;;;;;2.46;87.86;94707.69;5089620;28;20040;-67
2024/01/05 07:51:56;;;;;;;14.70;6.65;;;;;;;2.78;87.69;94715.41;5087602;28;20035;-67
2024/01/05 07:54:22;;;;;;;17.52;7.07;;;;;;;2.73;87.59;94710.53;5090021;28;20028;-67
2024/01/05 07:56:47;;;;;;;11.10;5.35;;;;;;;2.97;87.96;94723.75;5069267;28;20098;-67
2024/01/05 07:59:14;;;;;;;15.85;6.50;;;;;;;3.15;86.94;94714.25;5071448;28;20017;-67
2024/01/05 08:01:40;;;;;;;10.68;6.13;;;;;;;3.36;85.62;94707.88;5077987;28;20036;-67
2024/01/05 08:04:05;;;;;;;9.82;4.95;;;;;;;3.48;85.46;94714.09;5091578;28;20032;-67
2024/01/05 08:06:30;;;;;;;6.35;3.00;;;;;;;3.57;84.94;94703.28;5090216;28;20047;-67
2024/01/05 08:08:56;;;;;;;5.75;2.47;;;;;;;3.59;85.30;94710.88;5091460;28;20490;-67
2024/01/05 08:11:21;;;;;;;4.97;3.00;;;;;;;3.82;83.76;94719.88;5091196;28;20036;-67
2024/01/05 08:13:47;;;;;;;9.02;4.63;;;;;;;3.89;83.96;94718.56;5090185;28;20028;-67
2024/01/05 08:16:12;;;;;;;9.38;4.82;;;;;;;3.83;85.16;94726.66;5091721;28;20470;-67
2024/01/05 08:18:38;;;;;;;5.05;3.42;;;;;;;4.11;84.83;94715.59;5091422;28;20395;-67
2024/01/05 08:21:04;;;;;;;9.50;5.80;;;;;;;4.32;85.25;94718.63;5090245;28;20035;-67
2024/01/05 08:23:30;;;;;;;7.50;5.22;;;;;;;4.33;86.05;94728.00;5073124;28;20463;-67
2024/01/05 08:25:56;;;;;;;6.65;2.50;;;;;;;4.53;84.28;94726.78;5091066;28;20472;-67
2024/01/05 08:28:22;;;;;;;4.63;2.30;;;;;;;4.63;85.10;94724.50;5091018;28;20405;-67
2024/01/05 08:30:47;;;;;;;4.50;2.08;;;;;;;4.94;83.33;94731.16;5073171;28;20032;-68
2024/01/05 08:33:13;;;;;;;5.78;1.90;;;;;;;5.06;82.58;94739.88;5090966;28;20035;-67
2024/01/05 08:35:39;;;;;;;6.57;2.30;;;;;;;5.19;81.95;94730.47;5090003;28;20032;-67
2024/01/05 08:38:04;;;;;;;6.80;2.88;;;;;;;5.35;82.70;94735.47;5089740;28;20035;-65
2024/01/05 08:40:30;;;;;;;6.22;3.28;;;;;;;5.30;82.95;94728.03;5089845;28;20039;-66
2024/01/05 08:42:56;;;;;;;5.15;2.40;;;;;;;5.58;82.56;94731.44;5089645;28;20054;-67
2024/01/05 08:45:21;;;;;;;4.68;2.17;;;;;;;5.70;82.97;94742.69;5090791;28;20044;-67
2024/01/05 08:47:47;;;;;;;3.83;2.35;;;;;;;5.90;82.66;94737.03;5090736;28;20490;-67
2024/01/05 08:50:12;;;;;;;4.57;2.60;;;;;;;6.06;81.95;94739.47;5089743;28;20502;-67
2024/01/05 08:52:38;;;;;;;5.20;2.72;;;;;;;6.20;81.57;94738.56;5090736;28;20028;-67
2024/01/05 08:55:04;;;;;;;4.68;3.22;;;;;;;6.38;80.92;94739.06;5072716;28;20489;-67
2024/01/05 08:57:29;;;;;;;7.00;5.15;;;;;;;6.19;78.67;94693.91;5090873;28;20478;-64
2024/01/05 08:59:55;;;;;;;12.07;6.75;;;;;;;6.56;77.79;94726.69;5089366;28;20046;-67
2024/01/05 09:02:22;;;;;;;11.85;7.28;;;;;;;6.58;75.89;94719.69;5092666;28;20039;-66
2024/01/05 09:04:47;;;;;;;6.45;3.80;;;;;;;6.85;78.61;94724.69;5093699;28;20035;-67
2024/01/05 09:07:13;;;;;;;9.60;7.05;;;;;;;6.85;75.44;94712.63;5076863;28;20425;-67
2024/01/05 09:09:38;;;;;;;10.50;6.97;;;;;;;6.82;76.81;94709.41;5093483;28;20062;-67
2024/01/05 09:12:04;;;;;;;13.50;8.15;;;;;;;6.86;77.91;94718.59;5094911;28;20477;-67
2024/01/05 09:14:29;;;;;;;11.40;8.80;;;;;;;6.94;77.71;94706.78;5094607;28;20100;-65
2024/01/05 09:16:55;;;;;;;9.98;6.82;;;;;;;7.26;77.91;94708.03;5094784;28;20024;-65
2024/01/05 09:19:20;;;;;;;11.32;8.13;;;;;;;7.36;77.34;94706.44;5094431;28;20023;-65
2024/01/05 09:21:45;;;;;;;13.90;8.80;;;;;;;7.46;75.81;94710.00;5093360;28;20028;-65
2024/01/05 09:24:11;;;;;;;23.67;16.15;;;;;;;7.20;77.04;94713.63;5075695;28;20021;-66
2024/01/05 09:26:36;;;;;;;16.77;12.20;;;;;;;7.23;77.38;94709.06;5073178;28;20037;-64
2024/01/05 09:29:04;;;;;;;17.75;10.70;;;;;;;6.91;77.87;94708.78;5076451;28;20012;-64
2024/01/05 09:31:30;;;;;;;16.80;10.35;;;;;;;6.94;77.32;94704.22;5094968;28;20043;-67
2024/01/05 09:33:56;;;;;;;13.50;10.40;;;;;;;6.82;77.10;94693.91;5076069;28;20118;-67
2024/01/05 09:36:21;;;;;;;13.13;8.30;;;;;;;6.79;76.92;94709.63;5059740;28;20031;-65
2024/01/05 09:38:47;;;;;;;18.58;11.60;;;;;;;6.84;76.18;94705.78;5093041;28;20027;-67
2024/01/05 09:41:13;;;;;;;14.20;10.13;;;;;;;6.83;76.29;94711.88;5092924;28;20043;-67
2024/01/05 09:43:40;;;;;;;15.65;10.20;;;;;;;6.99;76.17;94716.78;5093069;28;20075;-67
2024/01/05 09:46:07;;;;;;;13.10;9.50;;;;;;;7.00;76.20;94717.63;5092846;28;20626;-64
2024/01/05 09:48:32;;;;;;;15.38;10.65;;;;;;;7.03;75.80;94714.84;5093019;28;20078;-64
2024/01/05 09:50:57;;;;;;;18.63;11.13;;;;;;;6.96;74.66;94717.00;5072570;28;20036;-65
2024/01/05 09:53:23;;;;;;;20.17;10.48;;;;;;;6.96;75.20;94706.66;5072637;28;20089;-64
2024/01/05 09:55:49;;;;;;;19.90;11.13;;;;;;;7.23;74.34;94713.41;5066465;28;20520;-65
2024/01/05 09:58:15;;;;;;;17.10;11.50;;;;;;;7.32;75.76;94721.31;5076375;28;20405;-64
2024/01/05 10:00:42;;;;;;;18.17;11.32;;;;;;;7.40;75.29;94710.44;5092552;28;20052;-65
2024/01/05 10:03:09;;;;;;;14.35;9.20;;;;;;;7.63;76.50;94720.88;5075959;28;20020;-64
2024/01/05 10:05:34;;;;;;;13.70;7.97;;;;;;;7.55;74.61;94711.94;5084996;28;20119;-65
2024/01/05 10:08:00;;;;;;;10.25;7.10;;;;;;;7.74;74.30;94700.25;5078266;28;20044;-66
2024/01/05 10:10:47;;;;;;;10.60;7.30;;;;;;;8.01;72.42;94712.91;5091291;28;20043;-65
2024/01/05 10:13:14;;;;;;;17.90;11.63;;;;;;;8.12;74.09;94707.75;5074984;28;20024;-64
2024/01/05 10:15:53;;;;;;;12.65;9.27;;;;;;;8.02;75.54;94707.63;5080912;28;20120;-64
2024/01/05 10:18:19;;;;;;;11.38;8.60;;;;;;;8.18;75.70;94701.28;5092423;28;20031;-64
2024/01/05 10:20:44;;;;;;;13.98;8.68;;;;;;;8.23;75.45;94699.19;5093535;28;20020;-65
2024/01/05 10:23:10;;;;;;;11.85;7.72;;;;;;;8.35;74.85;94695.66;5092296;28;20028;-65
2024/01/05 10:25:35;;;;;;;11.18;7.25;;;;;;;8.49;75.50;94698.06;5091854;28;20141;-64
2024/01/05 10:28:01;;;;;;;10.32;7.68;;;;;;;8.50;75.05;94694.53;5074035;28;20486;-65
2024/01/05 10:30:28;;;;;;;8.48;6.03;;;;;;;8.35;71.75;94690.47;5073298;28;20032;-64
2024/01/05 10:33:07;;;;;;;8.20;5.15;;;;;;;8.27;69.82;94675.56;5090648;28;20036;-65
2024/01/05 10:35:34;;;;;;;8.73;4.40;;;;;;;8.31;69.43;94677.91;5092194;28;20036;-64
2024/01/05 10:38:17;;;;;;;11.10;4.90;;;;;;;8.11;68.54;94680.25;5091850;28;20082;-65
2024/01/05 10:40:43;;;;;;;8.23;4.90;;;;;;;8.21;67.63;94665.66;5091893;28;20058;-64
2024/01/05 10:43:11;;;;;;;6.95;4.03;;;;;;;8.56;67.31;94669.94;5074986;28;20032;-65
2024/01/05 10:45:38;;;;;;;6.03;3.60;;;;;;;8.67;65.75;94667.34;5093229;28;20027;-64
2024/01/05 10:48:11;;;;;;;6.85;3.63;;;;;;;8.79;66.71;94675.91;5091699;28;20055;-64
2024/01/05 10:50:37;;;;;;;6.55;4.30;;;;;;;8.92;63.89;94668.84;5093203;28;20486;-64
2024/01/05 10:53:09;;;;;;;9.10;4.97;;;;;;;8.64;66.88;94666.78;5092828;28;20157;-64
2024/01/05 10:55:35;;;;;;;10.43;6.72;;;;;;;8.50;67.39;94660.06;5092738;28;20516;-64
2024/01/05 10:58:00;;;;;;;6.88;3.90;;;;;;;8.51;66.14;94653.94;5091449;28;20032;-64
2024/01/05 11:00:26;;;;;;;9.27;4.05;;;;;;;8.69;65.48;94660.28;5074786;28;20039;-64
2024/01/05 11:02:53;;;;;;;6.15;3.70;;;;;;;8.66;65.53;94644.16;5087118;28;20143;-65
2024/01/05 11:05:18;;;;;;;5.65;3.65;;;;;;;8.62;66.85;94661.69;5066397;28;20109;-64
2024/01/05 11:07:44;;;;;;;5.50;3.40;;;;;;;8.58;65.35;94655.13;5091178;28;20378;-64
2024/01/05 11:10:18;;;;;;;6.97;3.08;;;;;;;8.50;65.88;94654.88;5091029;28;20029;-64
2024/01/05 11:13:21;;;;;;;7.28;3.63;;;;;;;8.28;66.99;94650.50;5085227;28;20386;-64
2024/01/05 11:16:15;;;;;;;7.55;3.30;;;;;;;8.53;65.30;94640.88;5072125;28;20049;-64
2024/01/05 11:18:58;;;;;;;6.43;3.10;;;;;;;8.46;65.72;94641.34;5079885;28;20028;-65
2024/01/05 11:21:50;;;;;;;6.85;3.67;;;;;;;8.42;66.04;94646.88;5092841;28;20121;-65
2024/01/05 11:24:15;;;;;;;;;;;;;;;8.48;66.11;94646.41;5092686;28;20520;-65
2024/01/05 11:26:42;;;;;;;6.35;4.15;;;;;;;8.39;65.23;94635.00;5084488;28;20146;-65
2024/01/05 11:29:34;;;;;;;9.82;4.13;;;;;;;8.31;66.81;94639.09;5090135;28;20066;-65
2024/01/05 11:31:59;;;;;;;8.20;4.20;;;;;;;8.55;66.09;94638.97;5091160;28;20387;-65
2024/01/05 11:34:34;;;;;;;8.27;4.35;;;;;;;8.52;66.41;94634.03;5087178;28;20051;-65